Time;durP1;ratioP1;P1;durP2;ratioP2;P2;SDS_P1;SDS_P2;PMS_P1;PMS_P2;Temp;Humidity;BMP_temperature;BMP_pressure;BME280_temperature;BME280_humidity;BME280_pressure;Samples;Min_cycle;Max_cycle;Signal;HPM_P1;HPM_P2
2021/04/16 00:00:42;;;;;;;7.63;5.10;;;4.50;53.60;;;;;;4955321;29;20550;-75
2021/04/16 00:03:09;;;;;;;8.83;5.83;;;4.40;53.50;;;;;;4954320;29;20412;-75
2021/04/16 00:05:37;;;;;;;10.73;5.20;;;4.40;53.70;;;;;;4953900;29;20500;-75
2021/04/16 00:08:31;;;;;;;11.07;5.63;;;4.40;53.80;;;;;;4937174;29;20472;-75
2021/04/16 00:11:09;;;;;;;11.77;6.50;;;4.30;53.80;;;;;;4933117;29;20476;-74
2021/04/16 00:13:35;;;;;;;10.50;6.40;;;4.30;53.90;;;;;;4953710;29;20404;-74
2021/04/16 00:16:00;;;;;;;7.63;5.53;;;4.30;54.20;;;;;;4953907;29;20440;-74
2021/04/16 00:18:28;;;;;;;10.60;5.03;;;4.20;54.40;;;;;;4954818;29;20638;-74
2021/04/16 00:20:55;;;;;;;7.90;5.10;;;4.20;54.60;;;;;;4936262;29;20205;-75
2021/04/16 00:23:21;;;;;;;11.73;6.07;;;4.20;54.60;;;;;;4936125;29;20824;-75
2021/04/16 00:25:47;;;;;;;9.13;4.90;;;4.20;54.80;;;;;;4953531;29;20459;-75
2021/04/16 00:28:14;;;;;;;7.13;4.73;;;4.20;54.80;;;;;;4936176;29;20535;-74
2021/04/16 00:30:44;;;;;;;12.00;5.10;;;4.20;54.80;;;;;;4954658;29;20432;-76
2021/04/16 00:33:10;;;;;;;7.17;4.60;;;4.20;54.70;;;;;;4939968;28;20495;-75
2021/04/16 00:35:36;;;;;;;5.30;4.20;;;4.30;54.60;;;;;;4938904;29;20508;-74
2021/04/16 00:38:04;;;;;;;7.57;4.10;;;4.40;54.70;;;;;;4957431;29;20408;-74
2021/04/16 00:40:35;;;;;;;8.07;4.53;;;4.40;54.70;;;;;;4924186;29;20475;-75
2021/04/16 00:43:02;;;;;;;5.80;3.50;;;4.50;54.60;;;;;;4924749;29;20479;-75
2021/04/16 00:45:33;;;;;;;4.37;3.57;;;4.50;54.40;;;;;;4924768;29;20837;-74
2021/04/16 00:48:03;;;;;;;6.37;3.73;;;4.60;54.40;;;;;;4924984;29;20524;-74
2021/04/16 00:50:49;;;;;;;7.30;4.13;;;4.60;54.20;;;;;;4945246;29;20463;-74
2021/04/16 00:53:20;;;;;;;5.63;3.97;;;4.60;54.10;;;;;;4926320;29;20543;-74
2021/04/16 00:55:53;;;;;;;5.57;3.50;;;4.60;54.00;;;;;;4925525;29;20405;-75
2021/04/16 00:58:23;;;;;;;7.53;4.37;;;4.60;53.90;;;;;;4941709;29;20405;-75
2021/04/16 01:00:53;;;;;;;7.43;3.60;;;4.60;54.00;;;;;;4930838;29;20544;-74
2021/04/16 01:03:19;;;;;;;6.57;3.70;;;4.60;54.10;;;;;;4933607;29;20420;-74
2021/04/16 01:05:45;;;;;;;6.33;3.60;;;4.60;54.30;;;;;;4931330;29;20450;-74
2021/04/16 01:08:14;;;;;;;4.43;3.50;;;4.60;54.50;;;;;;4927926;29;20468;-75
2021/04/16 01:10:41;;;;;;;8.03;3.30;;;4.60;54.60;;;;;;4960309;29;20204;-75
2021/04/16 01:13:10;;;;;;;5.53;3.80;;;4.60;54.90;;;;;;4941288;29;20444;-75
2021/04/16 01:15:39;;;;;;;6.90;5.20;;;4.60;54.80;;;;;;4927568;29;20499;-74
2021/04/16 01:18:13;;;;;;;6.80;4.30;;;4.50;54.90;;;;;;4924798;29;20417;-74
2021/04/16 01:20:42;;;;;;;8.37;4.87;;;4.50;55.00;;;;;;4922165;29;20709;-74
2021/04/16 01:23:36;;;;;;;8.10;4.33;;;4.40;55.20;;;;;;4923402;29;20452;-74
2021/04/16 01:26:06;;;;;;;6.93;4.90;;;4.40;55.40;;;;;;4924329;29;20429;-74
2021/04/16 01:28:32;;;;;;;7.77;5.30;;;4.30;55.70;;;;;;4922929;29;20508;-74
2021/04/16 01:31:06;;;;;;;6.53;4.33;;;4.30;55.90;;;;;;4923474;29;20818;-73
2021/04/16 01:33:34;;;;;;;10.10;4.90;;;4.30;56.30;;;;;;4923114;29;20424;-74
2021/04/16 01:36:00;;;;;;;7.10;4.53;;;4.30;56.40;;;;;;4938746;29;20882;-75
2021/04/16 01:38:33;;;;;;;8.77;4.67;;;4.20;56.40;;;;;;4922730;29;20519;-73
2021/04/16 01:40:59;;;;;;;7.90;5.07;;;4.20;56.60;;;;;;4938291;29;20960;-75
2021/04/16 01:43:30;;;;;;;6.47;4.47;;;4.20;56.80;;;;;;4935625;29;20425;-74
2021/04/16 01:46:17;;;;;;;8.60;5.37;;;4.10;56.80;;;;;;4918878;29;20485;-74
2021/04/16 01:48:48;;;;;;;7.63;5.10;;;4.10;57.00;;;;;;4919506;29;20507;-74
2021/04/16 01:51:22;;;;;;;6.20;4.57;;;4.10;57.20;;;;;;4919328;29;20499;-74
2021/04/16 01:53:47;;;;;;;7.80;4.60;;;4.10;57.30;;;;;;4919130;29;20420;-74
2021/04/16 01:56:17;;;;;;;7.73;5.67;;;4.00;57.30;;;;;;4919588;29;20800;-75
2021/04/16 01:58:45;;;;;;;5.93;5.10;;;4.00;57.40;;;;;;4919734;29;20417;-74
2021/04/16 02:01:11;;;;;;;7.67;4.53;;;4.00;57.50;;;;;;4919350;29;20437;-73
2021/04/16 02:03:40;;;;;;;7.10;4.60;;;4.00;57.60;;;;;;4919044;29;20263;-74
2021/04/16 02:06:16;;;;;;;7.70;4.97;;;4.00;57.70;;;;;;4917774;29;20449;-74
2021/04/16 02:08:45;;;;;;;6.90;4.47;;;4.00;57.80;;;;;;4919015;29;20852;-74
2021/04/16 02:11:18;;;;;;;8.00;4.10;;;4.00;57.80;;;;;;4918433;29;20482;-74
2021/04/16 02:13:48;;;;;;;9.07;4.73;;;4.00;57.80;;;;;;4919057;29;20430;-74
2021/04/16 02:16:22;;;;;;;6.80;5.10;;;4.10;57.90;;;;;;4918529;29;20410;-74
2021/04/16 02:18:48;;;;;;;9.00;5.77;;;4.10;57.80;;;;;;4918799;29;20439;-74
2021/04/16 02:21:14;;;;;;;9.80;4.87;;;4.10;57.90;;;;;;4918151;29;20903;-74
2021/04/16 02:23:41;;;;;;;8.13;5.47;;;4.10;57.80;;;;;;4918107;29;20424;-74
2021/04/16 02:26:12;;;;;;;10.73;5.37;;;4.10;57.90;;;;;;4918512;29;20429;-74
2021/04/16 02:28:38;;;;;;;8.97;4.80;;;4.10;58.00;;;;;;4918644;29;20970;-74
2021/04/16 02:31:04;;;;;;;6.00;4.77;;;4.10;58.00;;;;;;4918104;29;20421;-74
2021/04/16 02:33:30;;;;;;;6.57;4.47;;;4.10;58.00;;;;;;4918326;29;20536;-74
2021/04/16 02:35:56;;;;;;;8.70;4.63;;;4.00;58.10;;;;;;4917914;29;20505;-74
2021/04/16 02:38:22;;;;;;;5.27;3.60;;;4.00;58.10;;;;;;4917317;29;20425;-74
2021/04/16 02:40:50;;;;;;;9.83;5.40;;;4.10;58.20;;;;;;4916518;29;20477;-74
2021/04/16 02:43:18;;;;;;;6.57;4.13;;;4.00;58.10;;;;;;4918068;29;20417;-73
2021/04/16 02:45:44;;;;;;;10.33;4.70;;;4.00;58.20;;;;;;4917620;29;20422;-73
2021/04/16 02:48:13;;;;;;;8.73;4.87;;;4.00;58.30;;;;;;4918246;29;20508;-74
2021/04/16 02:50:40;;;;;;;7.67;4.50;;;4.00;58.40;;;;;;4917241;29;20465;-74
2021/04/16 02:53:08;;;;;;;9.03;4.30;;;4.00;59.10;;;;;;4917941;29;20414;-74
2021/04/16 02:55:34;;;;;;;6.53;4.20;;;4.10;58.40;;;;;;4917739;29;20416;-74
2021/04/16 02:58:00;;;;;;;11.73;5.57;;;4.10;58.40;;;;;;4917234;29;20184;-75
2021/04/16 03:00:31;;;;;;;5.63;4.03;;;4.20;58.40;;;;;;4917464;29;20433;-75
2021/04/16 03:02:57;;;;;;;11.03;6.63;;;4.20;58.30;;;;;;4933314;29;20428;-75
2021/04/16 03:05:24;;;;;;;12.90;5.17;;;4.20;58.10;;;;;;4917089;29;20472;-75
2021/04/16 03:07:52;;;;;;;9.27;4.50;;;4.20;58.70;;;;;;4917732;29;20469;-75
2021/04/16 03:10:21;;;;;;;13.60;4.80;;;4.20;58.30;;;;;;4917131;29;20450;-75
2021/04/16 03:12:50;;;;;;;13.40;5.13;;;4.20;58.20;;;;;;4917716;29;20808;-75
2021/04/16 03:15:19;;;;;;;13.93;4.33;;;4.20;58.40;;;;;;4917384;29;20418;-75
2021/04/16 03:17:49;;;;;;;7.67;5.10;;;4.30;58.40;;;;;;4917397;29;20405;-75
2021/04/16 03:20:24;;;;;;;9.13;4.77;;;4.40;58.40;;;;;;4917728;29;20530;-75
2021/04/16 03:22:50;;;;;;;7.37;4.50;;;4.50;58.30;;;;;;4933265;29;20433;-73
2021/04/16 03:25:17;;;;;;;9.30;5.07;;;4.60;58.30;;;;;;4916987;29;20421;-74
2021/04/16 03:27:43;;;;;;;6.90;5.20;;;4.70;58.60;;;;;;4916468;29;20414;-75
2021/04/16 03:30:17;;;;;;;12.00;6.20;;;4.70;59.00;;;;;;4916645;29;20457;-74
2021/04/16 03:32:52;;;;;;;13.97;5.57;;;4.70;58.80;;;;;;4933078;29;20501;-74
2021/04/16 03:35:22;;;;;;;15.60;7.53;;;4.80;58.80;;;;;;4900948;29;20409;-74
2021/04/16 03:37:49;;;;;;;8.97;4.70;;;4.80;58.80;;;;;;4917361;29;20947;-74
2021/04/16 03:40:19;;;;;;;7.53;5.13;;;4.90;59.10;;;;;;4916919;29;20473;-74
2021/04/16 03:42:45;;;;;;;7.33;4.50;;;4.90;59.10;;;;;;4916522;29;20414;-74
2021/04/16 03:45:14;;;;;;;13.13;5.10;;;5.00;59.00;;;;;;4916584;29;20420;-74
2021/04/16 03:47:42;;;;;;;6.67;5.03;;;5.00;59.00;;;;;;4917201;29;20182;-75
2021/04/16 03:50:09;;;;;;;9.87;5.77;;;5.00;59.00;;;;;;4901423;29;20495;-74
2021/04/16 03:52:35;;;;;;;8.83;4.67;;;5.00;59.50;;;;;;4901993;29;20505;-74
2021/04/16 03:55:01;;;;;;;7.80;5.67;;;5.00;59.20;;;;;;4917373;29;20410;-74
2021/04/16 03:57:27;;;;;;;9.60;4.73;;;5.00;59.20;;;;;;4916069;29;20941;-76
2021/04/16 03:59:57;;;;;;;6.90;5.40;;;5.00;59.50;;;;;;4917188;29;20671;-75
2021/04/16 04:02:23;;;;;;;27.77;12.67;;;5.00;59.60;;;;;;4936303;29;20493;-74
2021/04/16 04:04:49;;;;;;;8.37;5.40;;;5.00;59.70;;;;;;4917068;29;20877;-74
2021/04/16 04:07:18;;;;;;;8.60;5.20;;;5.00;60.00;;;;;;4932554;29;20985;-74
2021/04/16 04:09:44;;;;;;;9.67;4.63;;;5.00;60.00;;;;;;4919973;29;20210;-74
2021/04/16 04:12:13;;;;;;;9.97;4.77;;;5.00;60.10;;;;;;4920180;29;20425;-74
2021/04/16 04:14:40;;;;;;;7.50;4.90;;;5.00;60.20;;;;;;4922759;29;20500;-74
2021/04/16 04:17:06;;;;;;;9.00;5.20;;;4.90;60.20;;;;;;4922622;29;20444;-74
2021/04/16 04:19:34;;;;;;;7.83;4.60;;;4.90;60.40;;;;;;4923021;29;20528;-76
2021/04/16 04:22:03;;;;;;;11.43;5.63;;;4.90;60.50;;;;;;4922330;29;20430;-75
2021/04/16 04:24:29;;;;;;;9.03;5.40;;;4.80;60.50;;;;;;4920875;29;20421;-75
2021/04/16 04:26:56;;;;;;;8.30;5.30;;;4.80;60.60;;;;;;4920890;29;20426;-75
2021/04/16 04:29:34;;;;;;;10.93;5.70;;;4.80;60.70;;;;;;4920528;29;20453;-75
2021/04/16 04:32:00;;;;;;;11.83;5.90;;;4.80;60.50;;;;;;4920568;29;20421;-75
2021/04/16 04:34:28;;;;;;;6.50;4.17;;;4.80;60.70;;;;;;4920697;29;20418;-75
2021/04/16 04:37:00;;;;;;;8.43;6.27;;;4.80;61.20;;;;;;4919848;29;20760;-75
2021/04/16 04:39:29;;;;;;;8.80;5.27;;;4.70;61.10;;;;;;4920022;29;20424;-74
2021/04/16 04:41:56;;;;;;;9.20;6.33;;;4.70;61.00;;;;;;4919948;29;20484;-74
2021/04/16 04:44:25;;;;;;;9.53;5.53;;;4.70;61.20;;;;;;4920055;29;20421;-75
2021/04/16 04:46:51;;;;;;;9.50;5.17;;;4.70;61.30;;;;;;4919494;29;20504;-75
2021/04/16 04:49:19;;;;;;;10.73;6.10;;;4.70;61.30;;;;;;4904315;29;20896;-75
2021/04/16 04:52:06;;;;;;;13.03;6.10;;;4.70;61.80;;;;;;4920428;29;20198;-74
2021/04/16 04:54:32;;;;;;;9.00;5.63;;;4.70;62.10;;;;;;4919869;29;21037;-74
2021/04/16 04:57:06;;;;;;;10.77;5.20;;;4.70;62.10;;;;;;4919929;29;20510;-74
2021/04/16 04:59:32;;;;;;;9.10;5.67;;;4.70;62.20;;;;;;4904680;29;20449;-75
2021/04/16 05:02:00;;;;;;;10.53;6.43;;;4.70;62.40;;;;;;4936868;29;20914;-75
2021/04/16 05:04:26;;;;;;;9.37;5.00;;;4.70;62.50;;;;;;4920151;29;20252;-75
2021/04/16 05:06:52;;;;;;;11.63;5.50;;;4.60;62.50;;;;;;4919965;29;20418;-75
2021/04/16 05:09:21;;;;;;;10.83;5.23;;;4.60;63.40;;;;;;4921276;29;20667;-74
2021/04/16 05:11:47;;;;;;;10.90;5.40;;;4.60;62.70;;;;;;4936232;29;20178;-75
2021/04/16 05:14:13;;;;;;;8.10;5.70;;;4.60;62.80;;;;;;4919488;29;20424;-75
2021/04/16 05:16:39;;;;;;;7.70;5.30;;;4.60;63.10;;;;;;4919863;29;20426;-77
2021/04/16 05:19:07;;;;;;;10.60;6.10;;;4.60;63.00;;;;;;4919846;29;20635;-74
2021/04/16 05:21:36;;;;;;;17.53;7.50;;;4.70;63.00;;;;;;4919057;29;20198;-75
2021/04/16 05:24:06;;;;;;;9.83;6.30;;;4.70;62.80;;;;;;4920204;29;20433;-75
2021/04/16 05:26:38;;;;;;;12.00;5.80;;;4.70;62.90;;;;;;4920131;29;20418;-75
2021/04/16 05:29:07;;;;;;;13.43;7.23;;;4.80;62.80;;;;;;4904320;29;20476;-74
2021/04/16 05:31:37;;;;;;;11.47;7.20;;;4.90;63.10;;;;;;4920379;29;20469;-75
2021/04/16 05:34:04;;;;;;;10.87;6.70;;;4.90;62.00;;;;;;4941026;29;20416;-75
2021/04/16 05:36:32;;;;;;;10.70;6.47;;;4.90;62.10;;;;;;4922790;29;20420;-74
2021/04/16 05:39:12;;;;;;;9.13;6.33;;;4.80;62.40;;;;;;4972423;28;20529;-74
2021/04/16 05:41:43;;;;;;;9.23;6.13;;;4.90;63.10;;;;;;4924386;29;20419;-74
2021/04/16 05:44:13;;;;;;;8.23;6.30;;;5.00;62.90;;;;;;4925383;29;20439;-75
2021/04/16 05:46:41;;;;;;;9.63;5.80;;;5.00;63.00;;;;;;4933255;29;20433;-75
2021/04/16 05:49:08;;;;;;;8.93;5.73;;;5.10;62.90;;;;;;4938265;29;20518;-74
2021/04/16 05:51:37;;;;;;;11.20;6.10;;;5.20;62.70;;;;;;4933674;29;20497;-74
2021/04/16 05:54:07;;;;;;;15.50;6.57;;;5.30;62.50;;;;;;4939973;29;20572;-75
2021/04/16 05:56:34;;;;;;;9.73;4.70;;;5.40;62.50;;;;;;4939233;29;20429;-75
2021/04/16 05:59:02;;;;;;;13.90;6.50;;;5.40;61.70;;;;;;4922158;29;20750;-73
2021/04/16 06:01:28;;;;;;;10.53;6.23;;;5.50;61.60;;;;;;4955714;29;20448;-70
2021/04/16 06:03:54;;;;;;;13.50;5.47;;;5.60;61.70;;;;;;4954574;29;20181;-71
2021/04/16 06:06:20;;;;;;;32.57;13.97;;;5.70;61.60;;;;;;4938753;29;20192;-72
2021/04/16 06:08:45;;;;;;;14.40;5.50;;;5.70;61.10;;;;;;4959866;29;20189;-71
2021/04/16 06:11:12;;;;;;;17.03;6.13;;;5.80;60.70;;;;;;4958912;29;20193;-71
2021/04/16 06:13:38;;;;;;;13.33;7.13;;;5.90;60.40;;;;;;4958146;29;20432;-71
2021/04/16 06:16:05;;;;;;;11.17;6.00;;;5.90;60.10;;;;;;4955737;29;20421;-71
2021/04/16 06:18:31;;;;;;;8.37;5.93;;;6.00;59.90;;;;;;4953857;29;20941;-72
2021/04/16 06:20:57;;;;;;;9.47;6.17;;;6.10;59.50;;;;;;4953575;29;20456;-71
2021/04/16 06:23:22;;;;;;;9.73;6.93;;;6.20;59.50;;;;;;4952893;29;20204;-70
2021/04/16 06:25:48;;;;;;;14.03;7.97;;;6.20;58.90;;;;;;4952713;29;20247;-71
2021/04/16 06:28:15;;;;;;;12.00;7.63;;;6.30;58.50;;;;;;4955211;28;20456;-76
2021/04/16 06:30:43;;;;;;;15.80;7.40;;;6.40;58.50;;;;;;4956928;28;20185;-77
2021/04/16 06:33:12;;;;;;;12.47;6.40;;;6.40;58.10;;;;;;4936595;29;21161;-72
2021/04/16 06:35:41;;;;;;;12.47;6.73;;;6.50;57.80;;;;;;4953086;28;20421;-72
2021/04/16 06:38:09;;;;;;;9.03;5.70;;;6.50;57.80;;;;;;4941910;28;21025;-74
2021/04/16 06:40:34;;;;;;;11.30;6.00;;;6.60;57.60;;;;;;4959630;29;20444;-72
2021/04/16 06:43:00;;;;;;;13.73;5.70;;;6.60;57.50;;;;;;4936366;29;20451;-72
2021/04/16 06:45:29;;;;;;;9.63;5.70;;;6.70;56.40;;;;;;4955506;29;20180;-72
2021/04/16 06:48:00;;;;;;;15.97;8.53;;;6.80;55.30;;;;;;4943016;29;20480;-72
2021/04/16 06:50:29;;;;;;;7.23;4.60;;;6.90;55.30;;;;;;4952641;28;20428;-72
2021/04/16 06:53:03;;;;;;;7.30;5.33;;;7.10;54.20;;;;;;4952868;28;20409;-73
2021/04/16 06:55:43;;;;;;;6.50;4.57;;;7.30;53.30;;;;;;4953425;28;20494;-71
2021/04/16 06:58:15;;;;;;;11.10;5.00;;;7.40;51.70;;;;;;4952972;29;20420;-71
2021/04/16 07:01:09;;;;;;;6.47;3.97;;;7.60;51.60;;;;;;4952030;29;20452;-71
2021/04/16 07:03:41;;;;;;;8.10;3.70;;;7.90;50.20;;;;;;4935489;29;20432;-74
2021/04/16 07:06:21;;;;;;;8.40;4.27;;;8.10;49.30;;;;;;4953304;29;20783;-72
2021/04/16 07:08:59;;;;;;;9.50;5.03;;;8.20;48.80;;;;;;4935223;29;20452;-73
2021/04/16 07:11:30;;;;;;;8.20;4.70;;;8.40;48.50;;;;;;4951896;28;20560;-72
2021/04/16 07:14:01;;;;;;;4.30;3.60;;;8.50;47.80;;;;;;4916644;29;20523;-74
2021/04/16 07:16:29;;;;;;;5.53;4.10;;;8.60;47.80;;;;;;4933460;29;20514;-75
2021/04/16 07:19:12;;;;;;;6.57;4.63;;;8.70;47.30;;;;;;4933378;29;20409;-73
2021/04/16 07:21:38;;;;;;;10.07;5.20;;;8.70;46.90;;;;;;4951864;29;20853;-74
2021/04/16 07:24:05;;;;;;;7.57;4.30;;;8.70;46.90;;;;;;4952877;28;20496;-74
2021/04/16 07:26:48;;;;;;;9.70;4.37;;;8.60;47.20;;;;;;4950763;28;20193;-72
2021/04/16 07:29:37;;;;;;;10.93;6.53;;;8.50;47.30;;;;;;4932979;29;20460;-73
2021/04/16 07:32:05;;;;;;;7.20;4.37;;;8.50;47.30;;;;;;4942451;28;20421;-72
2021/04/16 07:34:33;;;;;;;9.43;4.80;;;8.40;47.40;;;;;;4948621;28;21044;-72
2021/04/16 07:37:29;;;;;;;8.43;4.37;;;8.30;48.10;;;;;;4959097;29;20486;-74
2021/04/16 07:40:07;;;;;;;5.90;3.73;;;8.30;48.20;;;;;;4931047;28;21287;-72
2021/04/16 07:42:46;;;;;;;8.90;4.90;;;8.40;48.00;;;;;;4964034;28;20440;-77
2021/04/16 07:46:10;;;;;;;9.90;5.07;;;8.30;47.70;;;;;;4958477;28;20416;-79
2021/04/16 07:48:41;;;;;;;5.53;4.13;;;8.40;47.70;;;;;;4896964;28;20864;-75
2021/04/16 07:51:40;;;;;;;13.70;4.50;;;8.60;47.60;;;;;;4976228;28;20471;-77
2021/04/16 07:54:15;;;;;;;5.00;4.47;;;8.70;47.80;;;;;;4938448;28;20404;-73
2021/04/16 07:57:19;;;;;;;9.87;5.70;;;8.90;47.70;;;;;;4961920;28;20404;-77
2021/04/16 08:00:22;;;;;;;10.53;5.43;;;9.10;47.00;;;;;;4954707;28;20491;-73
2021/04/16 08:03:02;;;;;;;11.63;5.23;;;9.10;46.90;;;;;;4889630;29;20464;-76
2021/04/16 08:05:36;;;;;;;6.20;4.67;;;9.00;46.70;;;;;;4953324;28;20460;-77
2021/04/16 08:08:17;;;;;;;9.30;5.20;;;9.00;46.50;;;;;;4954824;29;20460;-75
2021/04/16 08:10:50;;;;;;;7.37;4.73;;;9.10;47.20;;;;;;4940139;29;20903;-74
2021/04/16 08:13:28;;;;;;;9.73;6.20;;;9.10;46.70;;;;;;4959596;29;20508;-74
2021/04/16 08:15:55;;;;;;;16.13;7.33;;;9.20;46.80;;;;;;4956086;28;20946;-75
2021/04/16 08:18:32;;;;;;;7.47;4.67;;;9.20;46.70;;;;;;4942638;29;20539;-74
2021/04/16 08:21:10;;;;;;;12.30;4.63;;;9.20;46.40;;;;;;4959937;29;20433;-75
2021/04/16 08:24:07;;;;;;;8.40;4.60;;;9.20;46.10;;;;;;4931956;29;20416;-76
2021/04/16 08:26:38;;;;;;;9.53;5.57;;;9.20;46.70;;;;;;4944510;29;20464;-73
2021/04/16 08:29:26;;;;;;;10.07;5.30;;;9.30;46.70;;;;;;4952710;28;20778;-76
2021/04/16 08:32:08;;;;;;;8.13;4.40;;;9.40;46.40;;;;;;4923324;29;20473;-75
2021/04/16 08:34:52;;;;;;;9.77;5.63;;;9.50;46.60;;;;;;4948616;28;20426;-76
2021/04/16 08:37:27;;;;;;;9.53;4.93;;;9.60;46.30;;;;;;4958280;28;20479;-73
2021/04/16 08:39:54;;;;;;;8.00;5.20;;;9.70;46.60;;;;;;4932926;29;20441;-74
2021/04/16 08:42:28;;;;;;;8.77;5.10;;;9.70;45.80;;;;;;4948966;29;20475;-75
2021/04/16 08:45:03;;;;;;;6.30;4.77;;;9.70;45.70;;;;;;4962274;29;20436;-74
2021/04/16 08:47:54;;;;;;;10.23;5.10;;;9.70;45.40;;;;;;4956898;28;20439;-73
2021/04/16 08:50:30;;;;;;;6.33;5.27;;;9.70;45.20;;;;;;4938589;29;20455;-73
2021/04/16 08:52:59;;;;;;;8.60;5.60;;;9.70;45.20;;;;;;4952492;28;20443;-74
2021/04/16 08:55:34;;;;;;;10.83;4.83;;;9.60;45.40;;;;;;4939324;29;20424;-74
2021/04/16 08:58:06;;;;;;;5.80;4.27;;;9.70;45.60;;;;;;4956320;29;20790;-75
2021/04/16 09:00:51;;;;;;;4.47;2.50;;;9.70;45.30;;;;;;4956417;29;20447;-73
2021/04/16 09:03:42;;;;;;;6.00;3.50;;;9.90;45.00;;;;;;4960340;29;20809;-74
2021/04/16 09:06:19;;;;;;;7.93;3.43;;;10.10;42.80;;;;;;4940420;29;20428;-75
2021/04/16 09:08:47;;;;;;;4.37;2.90;;;10.30;42.60;;;;;;4933560;29;20856;-72
2021/04/16 09:11:34;;;;;;;12.40;3.67;;;10.40;41.30;;;;;;4938212;29;20447;-74
2021/04/16 09:14:00;;;;;;;7.00;3.07;;;10.60;40.60;;;;;;4955554;29;20885;-74
2021/04/16 09:16:37;;;;;;;4.40;3.00;;;10.80;40.70;;;;;;4955056;29;20906;-74
2021/04/16 09:19:22;;;;;;;10.23;4.20;;;11.00;40.20;;;;;;4959410;28;20428;-72
2021/04/16 09:22:07;;;;;;;5.57;4.47;;;11.20;40.10;;;;;;4956346;28;20432;-73
2021/04/16 09:24:49;;;;;;;6.63;3.80;;;11.60;40.20;;;;;;4932804;28;20451;-73
2021/04/16 09:27:26;;;;;;;7.87;4.07;;;12.00;40.40;;;;;;4955872;28;20429;-73
2021/04/16 09:30:19;;;;;;;6.40;3.67;;;12.50;39.80;;;;;;4937395;29;20456;-72
2021/04/16 09:32:55;;;;;;;9.60;4.90;;;12.70;38.50;;;;;;4941792;28;21278;-72
2021/04/16 09:35:26;;;;;;;9.13;5.30;;;12.50;38.40;;;;;;4956242;29;20427;-72
2021/04/16 09:38:15;;;;;;;7.73;3.33;;;12.20;38.70;;;;;;4938163;29;21160;-73
2021/04/16 09:40:40;;;;;;;11.00;4.10;;;11.90;39.70;;;;;;4961203;29;20448;-74
2021/04/16 09:43:09;;;;;;;3.90;3.13;;;11.90;39.90;;;;;;4957838;28;20440;-74
2021/04/16 09:45:35;;;;;;;7.40;3.83;;;11.90;39.00;;;;;;4954622;29;20173;-74
2021/04/16 09:48:09;;;;;;;4.13;3.13;;;12.00;38.10;;;;;;4936737;29;20456;-73
2021/04/16 09:50:48;;;;;;;3.07;2.40;;;11.80;36.00;;;;;;4935040;29;20482;-71
2021/04/16 09:53:20;;;;;;;6.40;2.50;;;12.10;36.10;;;;;;4954912;28;20913;-74
2021/04/16 09:55:49;;;;;;;3.87;2.70;;;12.30;35.30;;;;;;4956066;29;20448;-73
2021/04/16 09:58:35;;;;;;;8.10;3.40;;;12.40;35.50;;;;;;4944520;29;20964;-73
2021/04/16 10:01:16;;;;;;;5.13;4.13;;;12.40;34.90;;;;;;4938344;29;20452;-73
2021/04/16 10:03:46;;;;;;;6.13;3.10;;;12.40;34.90;;;;;;4949789;29;20451;-71
2021/04/16 10:06:15;;;;;;;15.23;7.70;;;12.40;35.20;;;;;;4953871;28;20424;-73
2021/04/16 10:08:43;;;;;;;4.40;3.40;;;12.50;35.20;;;;;;4945311;29;20552;-72
2021/04/16 10:11:09;;;;;;;7.23;3.00;;;12.40;35.90;;;;;;4935293;29;20474;-75
2021/04/16 10:13:39;;;;;;;4.93;3.23;;;12.40;36.10;;;;;;4955101;29;20520;-74
2021/04/16 10:16:19;;;;;;;7.40;3.50;;;12.60;35.80;;;;;;4956760;29;20453;-74
2021/04/16 10:18:46;;;;;;;8.47;3.23;;;12.60;35.00;;;;;;4933321;28;20428;-75
2021/04/16 10:21:17;;;;;;;7.47;3.30;;;12.70;34.80;;;;;;4951179;29;20452;-74
2021/04/16 10:23:49;;;;;;;5.20;3.73;;;12.70;34.40;;;;;;4939610;29;20459;-73
2021/04/16 10:34:02;;;;;;;5.80;3.10;;;13.20;33.30;;;;;;4941432;29;20492;-74
2021/04/16 11:03:24;;;;;;;9.30;3.67;;;13.70;32.30;;;;;;4951193;29;20452;-73
2021/04/16 12:39:03;;;;;;;4.90;2.23;;;13.80;29.10;;;;;;4953129;28;20538;-73
2021/04/16 12:41:32;;;;;;;7.60;2.77;;;13.80;29.30;;;;;;4935261;28;20456;-73
2021/04/16 12:43:58;;;;;;;4.33;2.77;;;13.70;29.50;;;;;;4954150;29;20428;-73
2021/04/16 12:46:32;;;;;;;3.60;2.00;;;13.60;29.20;;;;;;4956375;29;20443;-72
2021/04/16 12:48:58;;;;;;;2.70;1.87;;;13.70;29.40;;;;;;4932808;29;20956;-72
2021/04/16 12:51:23;;;;;;;5.57;2.40;;;14.00;29.20;;;;;;4942700;29;20441;-73
2021/04/16 12:53:49;;;;;;;3.90;2.20;;;14.10;28.10;;;;;;4956595;28;20184;-74
2021/04/16 12:56:23;;;;;;;7.00;2.30;;;14.10;28.30;;;;;;4956513;29;20256;-73
2021/04/16 12:58:49;;;;;;;5.30;1.97;;;14.00;28.00;;;;;;4955913;28;20177;-72
2021/04/16 13:01:27;;;;;;;3.00;2.03;;;13.90;28.20;;;;;;4953419;28;20539;-72
2021/04/16 13:03:54;;;;;;;2.40;1.60;;;14.00;28.50;;;;;;4951349;29;20524;-73
2021/04/16 13:06:24;;;;;;;6.67;2.10;;;14.00;27.90;;;;;;4956819;29;20514;-72
2021/04/16 13:08:50;;;;;;;2.57;1.73;;;14.00;28.10;;;;;;4957297;29;20479;-73
2021/04/16 13:11:17;;;;;;;6.27;1.93;;;13.80;28.30;;;;;;4954868;29;20440;-72
2021/04/16 13:13:43;;;;;;;2.83;1.93;;;13.60;28.30;;;;;;4954686;29;20716;-73
2021/04/16 13:16:09;;;;;;;3.17;2.40;;;13.40;28.30;;;;;;4927406;29;20417;-74
2021/04/16 13:18:39;;;;;;;4.27;2.00;;;13.30;28.70;;;;;;4956176;29;20180;-73
2021/04/16 13:21:09;;;;;;;2.37;1.60;;;13.40;29.00;;;;;;4957716;28;20452;-73
2021/04/16 13:23:35;;;;;;;2.80;1.83;;;13.70;28.60;;;;;;4956453;29;20802;-73
2021/04/16 13:26:04;;;;;;;4.60;2.87;;;14.00;28.30;;;;;;4957638;29;20432;-73
2021/04/16 13:28:33;;;;;;;3.23;2.20;;;14.00;27.60;;;;;;4964578;28;20193;-74
2021/04/16 13:30:59;;;;;;;2.93;1.77;;;14.10;27.50;;;;;;4953143;28;20444;-71
2021/04/16 13:33:36;;;;;;;3.77;1.30;;;14.10;27.10;;;;;;4943560;29;20782;-74
2021/04/16 13:36:03;;;;;;;3.20;2.10;;;13.90;26.90;;;;;;4957385;29;20427;-73
2021/04/16 13:38:30;;;;;;;3.10;1.53;;;13.80;27.20;;;;;;4949873;29;20432;-71
2021/04/16 13:40:59;;;;;;;3.13;1.83;;;13.80;27.40;;;;;;4954946;28;20522;-75
2021/04/16 13:43:25;;;;;;;2.77;1.60;;;13.90;27.30;;;;;;4949069;29;20421;-73
2021/04/16 13:45:52;;;;;;;3.37;1.80;;;13.90;27.30;;;;;;4969090;29;20447;-74
2021/04/16 13:48:20;;;;;;;2.03;1.40;;;13.90;27.30;;;;;;4964900;29;20456;-73
2021/04/16 13:50:50;;;;;;;2.10;1.70;;;14.00;27.50;;;;;;4947954;29;20436;-75
2021/04/16 13:53:16;;;;;;;3.30;2.33;;;14.00;27.80;;;;;;4958394;29;20429;-73
2021/04/16 13:55:42;;;;;;;5.27;2.20;;;14.10;27.90;;;;;;4951011;29;20520;-71
2021/04/16 13:58:08;;;;;;;3.70;2.20;;;14.00;27.90;;;;;;4952685;29;20929;-74
2021/04/16 14:00:36;;;;;;;3.20;2.30;;;13.90;28.10;;;;;;4959296;29;20251;-72
2021/04/16 14:03:28;;;;;;;3.20;1.60;;;13.90;28.30;;;;;;4936910;29;20920;-72
2021/04/16 14:05:57;;;;;;;5.43;2.30;;;14.00;28.00;;;;;;4949266;28;20455;-74
2021/04/16 14:08:25;;;;;;;4.23;2.57;;;14.20;27.80;;;;;;4951033;29;20464;-75
2021/04/16 14:10:51;;;;;;;4.83;2.10;;;14.20;27.60;;;;;;4955754;29;20464;-75
2021/04/16 14:13:17;;;;;;;4.10;2.17;;;14.20;28.00;;;;;;4935271;29;20434;-73
2021/04/16 14:15:43;;;;;;;3.73;1.67;;;14.20;27.80;;;;;;4943455;28;20260;-74
2021/04/16 14:18:33;;;;;;;6.33;2.13;;;14.20;27.80;;;;;;4954219;29;20319;-74
2021/04/16 14:21:01;;;;;;;4.53;2.40;;;14.30;27.90;;;;;;4936025;29;20213;-74
2021/04/16 14:23:27;;;;;;;2.77;1.70;;;14.10;27.50;;;;;;4947543;29;20457;-74
2021/04/16 14:25:53;;;;;;;2.57;1.57;;;14.10;27.40;;;;;;4935590;29;20502;-75
2021/04/16 14:28:20;;;;;;;5.50;2.13;;;14.10;27.70;;;;;;4950193;29;20952;-73
2021/04/16 14:30:46;;;;;;;2.63;1.90;;;14.00;27.80;;;;;;4951764;29;20182;-74
2021/04/16 14:33:20;;;;;;;3.53;1.80;;;14.00;28.10;;;;;;4948509;29;20492;-75
2021/04/16 14:35:46;;;;;;;2.23;1.70;;;14.10;27.30;;;;;;4950466;29;20424;-73
2021/04/16 14:38:12;;;;;;;4.90;2.13;;;14.10;26.60;;;;;;4941286;29;20475;-73
2021/04/16 14:40:38;;;;;;;2.40;1.47;;;14.00;26.60;;;;;;4936446;29;20216;-72
2021/04/16 14:43:06;;;;;;;3.30;1.90;;;13.90;27.00;;;;;;4954514;29;20435;-72
2021/04/16 14:45:34;;;;;;;2.53;2.07;;;13.80;27.50;;;;;;4952739;29;20165;-71
2021/04/16 14:48:01;;;;;;;1.63;1.30;;;13.60;27.60;;;;;;4947957;29;20421;-75
2021/04/16 14:50:29;;;;;;;2.73;1.70;;;13.50;27.90;;;;;;4936727;29;20954;-73
2021/04/16 14:52:58;;;;;;;3.70;1.93;;;13.50;28.50;;;;;;4937061;29;20417;-73
2021/04/16 14:55:28;;;;;;;4.00;2.03;;;13.60;28.30;;;;;;4955447;28;20452;-73
2021/04/16 14:57:55;;;;;;;8.23;2.00;;;13.60;28.40;;;;;;4953722;28;21018;-73
2021/04/16 15:00:25;;;;;;;2.53;1.80;;;13.70;28.60;;;;;;4955227;29;20445;-74
2021/04/16 15:02:52;;;;;;;2.90;2.40;;;13.70;28.70;;;;;;4957537;29;20431;-73
2021/04/16 15:05:23;;;;;;;3.03;2.27;;;13.70;28.50;;;;;;4961262;29;20416;-74
2021/04/16 15:07:55;;;;;;;3.10;2.07;;;13.70;28.70;;;;;;4958830;29;20405;-73
2021/04/16 15:10:31;;;;;;;2.43;2.07;;;13.60;28.50;;;;;;4956492;29;20472;-74
2021/04/16 15:12:58;;;;;;;3.10;2.00;;;13.60;28.60;;;;;;4957490;29;20510;-73
2021/04/16 15:15:34;;;;;;;3.00;2.57;;;13.50;28.90;;;;;;4956384;29;20427;-73
2021/04/16 15:18:00;;;;;;;4.83;3.37;;;13.40;29.20;;;;;;4954339;29;20449;-73